Time;durP1;ratioP1;P1;durP2;ratioP2;P2;SDS_P1;SDS_P2;PMS_P1;PMS_P2;Temp;Humidity;BMP_temperature;BMP_pressure;BME280_temperature;BME280_humidity;BME280_pressure;Samples;Min_cycle;Max_cycle;Signal;HPM_P1;HPM_P2
2021/07/16 00:01:35;;;;;;;37.88;21.50;;;;;;;20.16;78.36;99279.94;5114509;27;20042;-70
2021/07/16 00:04:01;;;;;;;35.22;20.55;;;;;;;20.16;78.21;99279.94;5114222;28;20050;-69
2021/07/16 00:06:27;;;;;;;30.25;17.80;;;;;;;20.16;78.15;99282.63;5113974;28;20039;-71
2021/07/16 00:08:53;;;;;;;31.45;19.00;;;;;;;20.17;78.09;99284.25;5113764;28;20051;-72
2021/07/16 00:11:19;;;;;;;29.38;18.33;;;;;;;20.14;78.22;99281.97;5114305;28;20058;-70
2021/07/16 00:13:45;;;;;;;34.42;18.35;;;;;;;20.11;78.20;99286.88;5114412;28;20039;-70
2021/07/16 00:16:11;;;;;;;32.72;18.17;;;;;;;20.07;78.29;99286.44;5113837;28;20522;-69
2021/07/16 00:18:36;;;;;;;31.90;18.05;;;;;;;20.00;78.20;99286.38;5113912;28;20127;-69
2021/07/16 00:21:03;;;;;;;32.63;17.30;;;;;;;20.00;78.19;99290.88;5113534;28;20043;-72
2021/07/16 00:23:30;;;;;;;30.70;17.47;;;;;;;19.99;78.40;99287.38;5114134;28;20090;-71
2021/07/16 00:26:01;;;;;;;31.85;16.85;;;;;;;20.00;78.28;99290.88;5113817;28;20044;-70
2021/07/16 00:28:27;;;;;;;28.17;16.70;;;;;;;20.02;78.48;99296.91;5114132;28;20126;-72
2021/07/16 00:30:56;;;;;;;28.00;16.33;;;;;;;20.00;78.22;99289.06;5113768;28;20043;-69
2021/07/16 00:33:22;;;;;;;29.67;15.70;;;;;;;20.02;78.11;99283.50;5113596;28;20040;-71
2021/07/16 00:35:48;;;;;;;28.30;17.08;;;;;;;19.98;78.10;99288.41;5113679;28;20134;-71
2021/07/16 00:38:14;;;;;;;28.25;16.40;;;;;;;19.95;78.04;99287.94;5113516;28;20078;-73
2021/07/16 00:40:41;;;;;;;24.02;15.60;;;;;;;19.95;78.09;99285.25;5113439;28;20050;-71
2021/07/16 00:43:07;;;;;;;24.03;14.77;;;;;;;19.94;78.10;99280.91;5113668;28;20043;-71
2021/07/16 00:45:33;;;;;;;25.17;15.40;;;;;;;19.92;78.07;99277.59;5113505;28;20278;-71
2021/07/16 00:48:00;;;;;;;30.02;16.77;;;;;;;19.87;78.00;99284.34;5113052;28;20040;-70
2021/07/16 00:50:34;;;;;;;29.13;17.60;;;;;;;19.80;77.87;99275.38;5113326;28;20050;-75
2021/07/16 00:53:03;;;;;;;27.33;17.67;;;;;;;19.76;78.16;99274.06;5112237;28;20118;-70
2021/07/16 00:55:30;;;;;;;32.28;17.77;;;;;;;19.71;78.03;99277.34;5113561;28;20074;-70
2021/07/16 00:57:56;;;;;;;29.58;17.25;;;;;;;19.69;78.27;99270.50;5113235;28;20044;-70
2021/07/16 01:00:23;;;;;;;28.23;17.85;;;;;;;19.67;78.48;99269.84;5112386;28;20476;-71
2021/07/16 01:02:48;;;;;;;31.30;17.83;;;;;;;19.61;78.49;99270.59;5113106;27;20047;-72
2021/07/16 01:05:16;;;;;;;34.15;18.95;;;;;;;19.53;78.82;99263.50;5111648;28;20047;-69
2021/07/16 01:07:43;;;;;;;32.08;18.77;;;;;;;19.49;78.95;99267.53;5113502;28;20055;-70
2021/07/16 01:10:10;;;;;;;34.58;19.67;;;;;;;19.45;79.21;99271.63;5113605;28;20087;-72
2021/07/16 01:12:38;;;;;;;33.30;19.13;;;;;;;19.45;79.38;99261.75;5129457;27;20140;-69
2021/07/16 01:15:04;;;;;;;30.48;17.08;;;;;;;19.49;79.33;99263.03;5113031;28;20468;-70
2021/07/16 01:17:32;;;;;;;29.08;16.50;;;;;;;19.50;78.99;99262.00;5112153;28;20050;-69
2021/07/16 01:20:04;;;;;;;;;;;;;;;19.51;79.11;99255.59;5113565;28;20107;-69
2021/07/16 01:22:32;;;;;;;34.15;18.30;;;;;;;19.50;79.16;99263.84;5113373;28;19969;-71
2021/07/16 01:25:03;;;;;;;28.58;16.60;;;;;;;19.47;78.55;99262.38;5112599;28;20506;-69
2021/07/16 01:27:31;;;;;;;27.70;16.58;;;;;;;19.46;78.37;99263.38;5113131;28;20044;-70
2021/07/16 01:29:58;;;;;;;27.13;15.48;;;;;;;19.47;78.21;99258.88;5112527;28;20388;-70
2021/07/16 01:32:25;;;;;;;29.55;15.93;;;;;;;19.48;78.15;99258.69;5113101;28;20055;-70
2021/07/16 01:34:51;;;;;;;35.28;17.45;;;;;;;19.49;78.13;99260.34;5112980;28;20445;-71
2021/07/16 01:37:16;;;;;;;27.83;15.80;;;;;;;19.50;78.17;99262.00;5112536;28;20043;-69
2021/07/16 01:39:42;;;;;;;28.42;15.55;;;;;;;19.50;78.09;99259.34;5112502;28;20495;-71
2021/07/16 01:42:09;;;;;;;27.70;16.45;;;;;;;19.51;78.16;99269.00;5112063;28;20080;-69
2021/07/16 01:44:37;;;;;;;26.75;15.73;;;;;;;19.50;78.09;99270.06;5112316;28;20047;-69
2021/07/16 01:47:04;;;;;;;28.48;16.23;;;;;;;19.53;78.38;99275.03;5112043;28;20377;-69
2021/07/16 01:49:29;;;;;;;25.63;15.73;;;;;;;19.56;78.21;99269.31;5112698;28;20043;-71
2021/07/16 01:51:55;;;;;;;25.00;15.73;;;;;;;19.59;78.45;99270.78;5112476;28;20051;-72
2021/07/16 01:54:21;;;;;;;26.98;15.32;;;;;;;19.61;78.25;99270.59;5111198;28;20122;-69
2021/07/16 01:56:47;;;;;;;26.73;15.60;;;;;;;19.64;78.22;99270.22;5112673;28;20506;-69
2021/07/16 01:59:13;;;;;;;25.45;15.95;;;;;;;19.66;77.96;99270.84;5112130;28;20465;-68
2021/07/16 02:01:39;;;;;;;30.65;15.65;;;;;;;19.62;77.68;99280.31;5097773;28;20113;-68
2021/07/16 02:04:05;;;;;;;24.55;15.05;;;;;;;19.57;77.52;99275.50;5091083;28;20500;-71
2021/07/16 02:06:32;;;;;;;24.90;15.18;;;;;;;19.53;77.69;99275.03;5091085;28;20130;-73
2021/07/16 02:08:58;;;;;;;23.40;14.80;;;;;;;19.56;77.49;99272.00;5091643;28;20058;-70
2021/07/16 02:11:28;;;;;;;23.98;14.95;;;;;;;19.61;77.34;99270.59;5091451;28;20054;-71
2021/07/16 02:13:55;;;;;;;25.60;14.48;;;;;;;19.67;77.31;99281.41;5091795;28;20063;-71
2021/07/16 02:16:21;;;;;;;36.38;23.15;;;;;;;19.76;77.23;99268.72;5091543;28;20395;-69
2021/07/16 02:18:50;;;;;;;25.30;14.77;;;;;;;19.81;77.18;99271.69;5091661;28;20043;-72
2021/07/16 02:21:16;;;;;;;25.83;14.73;;;;;;;19.88;77.03;99269.09;5091427;28;20040;-71
2021/07/16 02:23:42;;;;;;;24.20;15.35;;;;;;;19.93;76.95;99268.53;5073915;28;20044;-68
2021/07/16 02:26:08;;;;;;;30.38;14.32;;;;;;;19.95;76.66;99271.84;5091781;28;20048;-69
2021/07/16 02:28:34;;;;;;;25.00;14.20;;;;;;;19.95;76.15;99261.09;5091861;28;20082;-70
2021/07/16 02:31:07;;;;;;;26.83;15.13;;;;;;;19.93;75.93;99257.78;5095459;28;20040;-70
2021/07/16 02:33:33;;;;;;;27.20;14.80;;;;;;;19.96;75.81;99254.72;5077546;28;20039;-68
2021/07/16 02:35:59;;;;;;;27.27;15.70;;;;;;;19.99;75.86;99257.84;5095639;28;20052;-71
2021/07/16 02:38:25;;;;;;;24.52;14.60;;;;;;;20.02;75.78;99257.47;5095511;28;20039;-71
2021/07/16 02:40:52;;;;;;;25.85;16.00;;;;;;;20.06;75.76;99257.09;5095371;28;20086;-69
2021/07/16 02:43:18;;;;;;;25.13;14.60;;;;;;;20.08;75.65;99260.44;5095307;28;20040;-71
2021/07/16 02:45:44;;;;;;;26.60;14.52;;;;;;;20.15;75.67;99256.78;5095285;28;20048;-72
2021/07/16 02:48:10;;;;;;;24.52;13.50;;;;;;;20.25;75.44;99255.63;5095409;28;20118;-73
2021/07/16 02:50:39;;;;;;;25.75;14.35;;;;;;;20.30;75.40;99263.94;5077303;28;20046;-70
2021/07/16 02:53:06;;;;;;;23.80;14.18;;;;;;;20.40;74.97;99259.09;5095084;28;20036;-70
2021/07/16 02:55:32;;;;;;;22.25;14.15;;;;;;;20.50;74.61;99264.16;5095086;28;20047;-71
2021/07/16 02:57:58;;;;;;;24.13;13.07;;;;;;;20.61;74.44;99260.09;5095398;28;20048;-70
2021/07/16 03:00:26;;;;;;;21.60;13.68;;;;;;;20.67;74.59;99253.94;5094800;28;20047;-71
2021/07/16 03:02:52;;;;;;;22.52;13.60;;;;;;;20.69;74.44;99247.34;5094904;28;20056;-69
2021/07/16 03:05:21;;;;;;;19.92;13.27;;;;;;;20.73;74.43;99257.75;5095043;28;20040;-72
2021/07/16 03:07:47;;;;;;;22.48;13.40;;;;;;;20.69;74.81;99257.25;5076955;28;20048;-69
2021/07/16 03:10:37;;;;;;;23.45;12.85;;;;;;;20.77;74.65;99259.84;5095013;28;20055;-71
2021/07/16 03:13:08;;;;;;;22.05;13.90;;;;;;;20.87;74.58;99258.66;5097314;28;20051;-70
2021/07/16 03:15:35;;;;;;;19.88;13.18;;;;;;;20.96;74.35;99265.53;5114295;28;20078;-71
2021/07/16 03:18:04;;;;;;;21.37;14.53;;;;;;;21.05;74.02;99269.75;5115039;28;20043;-68
2021/07/16 03:20:36;;;;;;;22.73;14.55;;;;;;;21.14;73.75;99265.06;5115055;28;20526;-70
2021/07/16 03:23:02;;;;;;;26.70;14.73;;;;;;;21.24;73.73;99268.22;5096835;28;20051;-70
2021/07/16 03:25:29;;;;;;;23.10;14.52;;;;;;;21.32;73.66;99278.81;5096664;28;20047;-71
2021/07/16 03:27:55;;;;;;;25.27;16.00;;;;;;;21.41;73.36;99282.19;5114887;28;20047;-70
2021/07/16 03:30:26;;;;;;;28.48;16.58;;;;;;;21.54;73.35;99285.97;5114429;28;20126;-69
2021/07/16 03:32:52;;;;;;;24.70;15.32;;;;;;;21.65;72.80;99280.03;5114948;28;20040;-69
2021/07/16 03:35:19;;;;;;;24.60;15.02;;;;;;;21.74;72.66;99283.38;5114779;28;20051;-70
2021/07/16 03:37:46;;;;;;;25.50;15.65;;;;;;;21.82;72.23;99283.22;5114980;28;20047;-70
2021/07/16 03:40:14;;;;;;;31.42;16.58;;;;;;;21.90;72.19;99291.09;5113293;28;20045;-69
2021/07/16 03:42:40;;;;;;;26.48;15.82;;;;;;;22.03;71.64;99287.66;5098381;28;20036;-69
2021/07/16 03:45:11;;;;;;;28.70;17.02;;;;;;;22.11;71.40;99287.44;5111126;28;20040;-71
2021/07/16 03:47:38;;;;;;;30.85;16.95;;;;;;;22.17;71.24;99285.81;5112594;28;20036;-72
2021/07/16 03:50:04;;;;;;;32.97;18.17;;;;;;;22.26;70.65;99291.84;5114919;28;20043;-71
2021/07/16 03:52:30;;;;;;;33.08;17.83;;;;;;;22.34;70.51;99291.63;5105897;28;20122;-71
2021/07/16 03:54:56;;;;;;;30.25;17.85;;;;;;;22.41;70.33;99291.69;5113522;28;20128;-70
2021/07/16 03:57:22;;;;;;;28.95;17.33;;;;;;;22.50;69.70;99284.22;5114484;28;20158;-72
2021/07/16 03:59:48;;;;;;;31.25;17.17;;;;;;;22.62;69.08;99279.88;5113860;28;20096;-71
2021/07/16 04:02:14;;;;;;;27.38;16.45;;;;;;;22.73;68.70;99284.66;5113948;28;20198;-71
2021/07/16 04:04:39;;;;;;;27.67;16.98;;;;;;;22.85;68.74;99297.50;5114500;28;20389;-71
2021/07/16 04:07:06;;;;;;;29.35;17.38;;;;;;;23.03;68.35;99299.56;5104153;28;20049;-71
2021/07/16 04:09:34;;;;;;;27.35;16.52;;;;;;;24.43;65.02;99286.63;5113777;28;20055;-70
2021/07/16 04:12:16;;;;;;;25.98;16.27;;;;;;;26.41;58.44;99287.63;5114247;28;20104;-70
2021/07/16 04:14:44;;;;;;;29.70;16.08;;;;;;;27.90;54.87;99291.03;5114310;28;20043;-71
2021/07/16 04:17:16;;;;;;;26.55;15.75;;;;;;;28.77;52.31;99277.34;5113239;28;20059;-73
2021/07/16 04:19:43;;;;;;;24.08;16.33;;;;;;;29.45;49.89;99290.06;5095589;28;20052;-71
2021/07/16 04:22:10;;;;;;;25.02;17.42;;;;;;;30.20;47.24;99286.84;5112455;28;20134;-72
2021/07/16 04:24:37;;;;;;;24.90;14.35;;;;;;;30.78;45.27;99293.38;5113428;28;20040;-73
2021/07/16 04:27:04;;;;;;;21.85;13.50;;;;;;;31.27;43.77;99291.53;5112887;28;20040;-71
2021/07/16 04:29:30;;;;;;;20.67;12.52;;;;;;;32.00;42.06;99285.28;5112675;28;20035;-74
2021/07/16 04:31:58;;;;;;;19.88;12.90;;;;;;;32.47;40.18;99288.09;5112872;28;20039;-73
2021/07/16 04:34:24;;;;;;;18.02;12.95;;;;;;;32.85;38.79;99280.44;5094765;28;20054;-73
2021/07/16 04:36:50;;;;;;;19.60;13.03;;;;;;;33.58;37.61;99284.63;5113833;28;20039;-75
2021/07/16 04:39:15;;;;;;;19.43;12.27;;;;;;;34.03;36.71;99280.06;5113253;28;20046;-70
2021/07/16 04:41:41;;;;;;;20.13;12.70;;;;;;;34.45;35.67;99288.03;5095136;28;20055;-72
2021/07/16 04:44:07;;;;;;;20.52;12.88;;;;;;;35.20;34.75;99281.28;5113595;28;20066;-75
2021/07/16 04:46:33;;;;;;;18.07;12.67;;;;;;;35.72;33.43;99284.25;5113448;28;20075;-75
2021/07/16 04:48:59;;;;;;;22.30;13.03;;;;;;;35.76;33.47;99279.78;5113403;28;20073;-72
2021/07/16 04:51:24;;;;;;;22.77;13.03;;;;;;;35.53;33.60;99283.41;5113222;28;20093;-71
2021/07/16 04:53:52;;;;;;;20.67;13.10;;;;;;;35.82;32.65;99279.75;5113073;28;20043;-76
2021/07/16 04:56:17;;;;;;;19.58;12.95;;;;;;;36.41;32.10;99281.09;5112654;28;20112;-75
2021/07/16 04:58:43;;;;;;;16.90;11.98;;;;;;;36.69;31.95;99294.13;5095400;28;20480;-75
2021/07/16 05:01:09;;;;;;;17.07;12.13;;;;;;;38.03;29.78;99297.06;5094613;28;20138;-73
2021/07/16 05:03:35;;;;;;;21.23;12.98;;;;;;;38.86;27.66;99290.38;5112760;28;20044;-72
2021/07/16 05:06:00;;;;;;;18.43;11.70;;;;;;;39.46;27.40;99286.22;5113067;28;20496;-76
2021/07/16 05:08:26;;;;;;;19.55;12.13;;;;;;;38.97;27.44;99290.94;5112682;28;20293;-72
2021/07/16 05:10:52;;;;;;;19.05;12.02;;;;;;;39.36;26.92;99292.06;5112871;28;20055;-72
2021/07/16 05:13:17;;;;;;;20.17;12.70;;;;;;;39.92;25.89;99288.78;5112625;28;20563;-70
2021/07/16 05:15:43;;;;;;;17.75;11.40;;;;;;;40.73;24.98;99289.25;5112634;28;20468;-72
2021/07/16 05:18:09;;;;;;;20.38;11.48;;;;;;;40.85;24.72;99294.91;5112794;28;20050;-73
2021/07/16 05:20:34;;;;;;;17.58;11.40;;;;;;;41.19;24.69;99297.94;5112510;28;20035;-74
2021/07/16 05:23:00;;;;;;;16.77;11.30;;;;;;;41.24;24.29;99290.22;5112844;28;20469;-73
2021/07/16 05:25:26;;;;;;;16.55;12.13;;;;;;;41.47;23.63;99300.25;5112286;28;20051;-73
2021/07/16 05:27:52;;;;;;;19.20;11.55;;;;;;;41.10;24.20;99294.34;5112904;28;20043;-71
2021/07/16 05:30:18;;;;;;;16.45;11.50;;;;;;;41.17;24.30;99300.22;5112421;28;20043;-72
2021/07/16 05:32:44;;;;;;;20.25;12.50;;;;;;;40.47;25.08;99297.59;5113014;28;20066;-72
2021/07/16 05:35:10;;;;;;;;;;;;;;;39.96;25.46;99298.06;5113089;28;20050;-75
2021/07/16 05:37:35;;;;;;;21.85;12.50;;;;;;;40.17;25.81;99297.47;5112515;28;19915;-75
2021/07/16 05:40:01;;;;;;;18.75;12.23;;;;;;;40.56;24.92;99304.75;5112759;28;20458;-75
2021/07/16 05:42:27;;;;;;;19.08;12.05;;;;;;;40.09;25.33;99301.81;5111983;28;20561;-71
2021/07/16 05:44:53;;;;;;;17.20;13.05;;;;;;;40.67;24.44;99293.34;5112319;28;20048;-72
2021/07/16 05:47:20;;;;;;;15.98;11.13;;;;;;;41.38;24.09;99297.50;5112182;28;20040;-78
2021/07/16 05:49:46;;;;;;;17.10;12.73;;;;;;;41.63;23.14;99289.38;5112640;28;20492;-71
2021/07/16 05:52:11;;;;;;;;;;;;;;;42.13;22.55;99287.72;5112610;28;20051;-74
2021/07/16 05:54:37;;;;;;;17.70;11.93;;;;;;;41.48;23.91;99305.47;5112327;28;20064;-72
2021/07/16 05:57:04;;;;;;;21.95;12.32;;;;;;;42.26;22.56;99292.19;5094156;28;20043;-78
2021/07/16 05:59:30;;;;;;;;;;;;;;;42.87;22.14;99282.44;5094393;28;20485;-73
2021/07/16 06:01:56;;;;;;;21.40;12.60;;;;;;;42.17;22.59;99294.22;5093612;28;19940;-74
2021/07/16 06:04:21;;;;;;;;;;;;;;;42.26;22.58;99294.97;5111912;28;20180;-75
2021/07/16 06:06:50;;;;;;;23.35;11.98;;;;;;;42.46;22.18;99293.31;5112340;28;20017;-75
2021/07/16 06:09:15;;;;;;;18.50;12.65;;;;;;;43.22;21.20;99293.16;5111789;28;20552;-72
2021/07/16 06:11:41;;;;;;;17.73;12.57;;;;;;;43.78;20.58;99294.47;5112098;28;20134;-74
2021/07/16 06:14:07;;;;;;;17.70;13.77;;;;;;;43.39;20.86;99294.06;5093906;28;20043;-74
2021/07/16 06:16:33;;;;;;;;;;;;;;;44.25;20.07;99288.34;5112482;28;20066;-74
2021/07/16 06:18:59;;;;;;;23.23;14.20;;;;;;;44.88;19.36;99289.66;5112460;28;20441;-74
2021/07/16 06:21:25;;;;;;;21.90;12.05;;;;;;;45.28;19.19;99292.59;5111890;28;20130;-74
2021/07/16 06:23:51;;;;;;;18.85;13.30;;;;;;;44.59;19.19;99290.84;5093637;28;20127;-72
2021/07/16 06:26:16;;;;;;;22.20;12.45;;;;;;;43.92;19.90;99294.91;5111651;28;20047;-73
2021/07/16 06:28:42;;;;;;;21.15;13.40;;;;;;;43.61;20.25;99295.59;5111590;28;20192;-73
2021/07/16 06:31:08;;;;;;;25.08;13.48;;;;;;;44.06;19.63;99297.34;5112047;28;20051;-73
2021/07/16 06:33:34;;;;;;;21.92;13.82;;;;;;;44.45;19.45;99290.47;5093617;28;20043;-75
2021/07/16 06:36:00;;;;;;;27.00;13.38;;;;;;;44.30;19.57;99292.03;5093960;28;20036;-72
2021/07/16 06:38:25;;;;;;;17.13;12.05;;;;;;;44.61;18.97;99288.50;5112030;28;20135;-74
2021/07/16 06:40:51;;;;;;;19.38;13.30;;;;;;;43.92;19.47;99283.78;5112095;28;20044;-75
2021/07/16 06:43:17;;;;;;;17.75;11.70;;;;;;;43.56;19.73;99279.91;5112089;28;20035;-74
2021/07/16 06:45:43;;;;;;;19.17;11.55;;;;;;;43.67;19.96;99283.03;5111637;28;20078;-76
2021/07/16 06:48:09;;;;;;;16.88;10.90;;;;;;;44.01;19.26;99277.28;5112260;28;20043;-76
2021/07/16 06:50:35;;;;;;;24.90;11.98;;;;;;;44.83;18.93;99281.53;5111679;28;20526;-73
2021/07/16 06:53:00;;;;;;;19.80;11.65;;;;;;;45.39;17.92;99286.13;5111549;28;20039;-73
2021/07/16 06:55:26;;;;;;;15.05;11.52;;;;;;;45.62;17.65;99279.06;5111827;28;20043;-75
2021/07/16 06:57:52;;;;;;;18.33;12.05;;;;;;;45.05;18.27;99282.91;5111741;28;20043;-78
2021/07/16 07:00:18;;;;;;;16.98;11.57;;;;;;;45.08;18.11;99276.56;5111476;28;20050;-74
2021/07/16 07:02:44;;;;;;;18.15;11.00;;;;;;;46.28;17.02;99279.25;5112144;28;20488;-72
2021/07/16 07:05:10;;;;;;;17.55;11.88;;;;;;;46.66;17.06;99277.56;5093769;28;20118;-73
2021/07/16 07:07:35;;;;;;;16.58;11.82;;;;;;;45.90;17.42;99269.66;5111512;28;20040;-74
2021/07/16 07:10:02;;;;;;;15.80;13.43;;;;;;;45.47;17.75;99273.13;5111612;28;20059;-73
2021/07/16 07:12:28;;;;;;;19.92;12.13;;;;;;;45.17;18.53;99278.41;5111426;28;20548;-74
2021/07/16 07:14:54;;;;;;;18.38;12.75;;;;;;;46.09;17.54;99275.28;5111251;28;20145;-72
2021/07/16 07:17:20;;;;;;;22.70;12.55;;;;;;;46.25;17.27;99274.38;5114767;28;20535;-74
2021/07/16 07:19:46;;;;;;;15.07;11.27;;;;;;;46.99;16.38;99267.75;5115417;28;20181;-75
2021/07/16 07:22:12;;;;;;;16.35;11.52;;;;;;;46.67;16.54;99267.97;5115027;28;20131;-76
2021/07/16 07:24:38;;;;;;;16.20;11.00;;;;;;;45.98;16.88;99268.66;5115143;28;20574;-72
2021/07/16 07:27:04;;;;;;;16.25;11.85;;;;;;;46.00;16.53;99266.28;5114961;28;20036;-73
2021/07/16 07:29:33;;;;;;;13.98;10.75;;;;;;;45.08;16.83;99265.41;5114951;28;20040;-77
2021/07/16 07:32:00;;;;;;;14.80;11.27;;;;;;;44.93;16.62;99274.63;5114803;28;20055;-75
2021/07/16 07:34:26;;;;;;;15.77;11.60;;;;;;;45.14;17.27;99271.56;5114746;28;20055;-76
2021/07/16 07:36:52;;;;;;;14.50;11.85;;;;;;;46.26;16.28;99267.59;5114952;28;20039;-78
2021/07/16 07:39:18;;;;;;;14.35;11.07;;;;;;;46.44;16.13;99265.97;5115058;28;20046;-78
2021/07/16 07:41:46;;;;;;;16.00;11.25;;;;;;;46.29;16.64;99266.88;5096690;28;20127;-79
2021/07/16 07:44:31;;;;;;;13.85;12.20;;;;;;;43.83;18.14;99269.19;5114580;28;20140;-73
2021/07/16 07:46:56;;;;;;;17.63;12.35;;;;;;;44.71;17.46;99270.44;5114993;28;20131;-73
2021/07/16 07:49:22;;;;;;;13.88;12.48;;;;;;;44.54;17.34;99274.38;5114616;28;20058;-79
2021/07/16 07:51:48;;;;;;;15.30;12.23;;;;;;;44.53;17.65;99268.00;5114772;28;20188;-75
2021/07/16 07:54:14;;;;;;;14.55;10.77;;;;;;;43.76;18.44;99269.78;5114973;28;20119;-72
2021/07/16 07:56:40;;;;;;;15.23;11.18;;;;;;;42.43;19.75;99265.38;5114799;28;20040;-75
2021/07/16 07:59:06;;;;;;;16.63;11.80;;;;;;;40.47;22.10;99272.66;5114549;28;20130;-75
2021/07/16 08:01:33;;;;;;;14.02;11.70;;;;;;;41.66;21.07;99261.75;5079296;28;20039;-72
2021/07/16 08:04:00;;;;;;;17.52;12.93;;;;;;;42.93;19.67;99267.13;5096110;28;20139;-75
2021/07/16 08:06:26;;;;;;;13.75;12.35;;;;;;;44.38;18.27;99260.41;5114066;28;20107;-75
2021/07/16 08:08:52;;;;;;;14.23;11.45;;;;;;;45.57;16.92;99277.34;5096006;28;20142;-74
2021/07/16 08:11:18;;;;;;;16.25;11.77;;;;;;;45.25;17.07;99269.00;5114471;28;20173;-75
2021/07/16 08:13:44;;;;;;;13.77;11.88;;;;;;;44.62;17.41;99258.63;5113868;28;20047;-72
2021/07/16 08:16:10;;;;;;;15.52;12.65;;;;;;;41.61;20.46;99264.72;5113904;28;20043;-73
2021/07/16 08:18:36;;;;;;;14.48;12.52;;;;;;;41.43;21.26;99266.00;5113630;28;20036;-74
2021/07/16 08:21:03;;;;;;;16.42;11.93;;;;;;;40.67;21.89;99263.63;5114116;28;20128;-73
2021/07/16 08:23:28;;;;;;;12.68;11.02;;;;;;;39.77;22.76;99257.66;5095320;28;20085;-74
2021/07/16 08:25:54;;;;;;;14.18;11.35;;;;;;;40.41;22.26;99263.69;5114217;28;20047;-73
2021/07/16 08:28:20;;;;;;;15.50;12.32;;;;;;;41.96;20.64;99252.53;5113845;28;20588;-77
2021/07/16 08:30:46;;;;;;;;;;;;;;;43.65;18.38;99262.28;5114060;28;20047;-78
2021/07/16 08:33:11;;;;;;;19.25;15.98;;;;;;;45.23;16.96;99261.00;5113733;28;19919;-77
2021/07/16 08:35:37;;;;;;;13.15;11.75;;;;;;;45.47;16.87;99264.72;5113844;28;20139;-73
2021/07/16 08:38:05;;;;;;;13.15;11.85;;;;;;;45.23;16.62;99261.00;5095619;28;20055;-79
2021/07/16 08:40:32;;;;;;;13.02;11.20;;;;;;;45.99;15.84;99259.09;5113611;28;20489;-76
2021/07/16 08:42:59;;;;;;;14.27;12.20;;;;;;;45.55;16.19;99263.75;5095411;28;20633;-78
2021/07/16 08:45:26;;;;;;;12.48;11.15;;;;;;;42.33;18.63;99256.31;5113334;28;20507;-79
2021/07/16 08:47:52;;;;;;;14.50;11.52;;;;;;;44.04;17.52;99251.47;5113825;28;20043;-75
2021/07/16 08:50:19;;;;;;;14.68;12.10;;;;;;;44.54;16.97;99261.25;5113842;28;20043;-77
2021/07/16 08:52:46;;;;;;;17.40;12.23;;;;;;;44.24;17.21;99256.03;5113979;28;20062;-76
2021/07/16 08:55:14;;;;;;;14.25;12.70;;;;;;;42.28;18.95;99247.38;5113596;28;20490;-77
2021/07/16 08:57:41;;;;;;;15.98;11.75;;;;;;;42.16;19.55;99253.66;5113348;28;20074;-74
2021/07/16 09:00:13;;;;;;;17.15;13.10;;;;;;;41.85;20.00;99252.16;5113181;28;20131;-75
2021/07/16 09:02:57;;;;;;;18.40;12.90;;;;;;;40.69;21.28;99253.03;5113248;28;20067;-72
2021/07/16 09:05:34;;;;;;;12.80;11.25;;;;;;;39.74;22.35;99247.25;5113468;28;20040;-75
2021/07/16 09:08:00;;;;;;;12.50;10.77;;;;;;;40.28;21.75;99252.44;5113565;28;20050;-78
2021/07/16 09:10:27;;;;;;;;;;;;;;;39.51;22.85;99246.53;5095229;28;20043;-74
2021/07/16 09:13:00;;;;;;;12.80;11.50;;;;;;;38.88;23.66;99248.56;5113342;28;19920;-77
2021/07/16 09:15:27;;;;;;;16.27;10.95;;;;;;;40.64;21.28;99250.44;5094775;28;20468;-77
2021/07/16 09:18:24;;;;;;;13.90;11.32;;;;;;;39.27;22.52;99244.19;5113015;28;20063;-74
2021/07/16 09:21:04;;;;;;;14.35;11.27;;;;;;;38.67;23.25;99244.38;5113285;28;20480;-74
2021/07/16 09:23:40;;;;;;;11.85;10.75;;;;;;;38.81;23.10;99241.56;5094508;28;20040;-75
2021/07/16 09:26:12;;;;;;;14.00;10.60;;;;;;;37.46;24.92;99239.47;5113362;28;20043;-74
2021/07/16 09:28:46;;;;;;;12.23;10.98;;;;;;;36.66;25.89;99250.66;5112485;28;20504;-76
2021/07/16 09:31:13;;;;;;;13.50;11.52;;;;;;;36.86;25.81;99243.97;5112775;28;20509;-75
2021/07/16 09:34:06;;;;;;;14.38;11.32;;;;;;;39.20;23.22;99233.56;5112906;28;20044;-77
2021/07/16 09:36:35;;;;;;;14.23;11.73;;;;;;;41.53;20.26;99237.81;5112926;28;20061;-79
2021/07/16 09:39:12;;;;;;;14.13;12.23;;;;;;;42.20;20.07;99243.50;5112097;28;20497;-77
2021/07/16 09:41:52;;;;;;;16.50;12.65;;;;;;;42.01;20.40;99238.44;5094731;28;20047;-77
2021/07/16 09:44:35;;;;;;;12.35;11.07;;;;;;;43.17;19.32;99226.56;5112701;28;20046;-74
2021/07/16 09:47:16;;;;;;;18.60;13.25;;;;;;;41.81;20.22;99231.72;5112880;28;20133;-76
2021/07/16 09:49:43;;;;;;;18.02;13.05;;;;;;;41.47;20.75;99225.28;5112478;28;20044;-76
2021/07/16 09:52:10;;;;;;;18.80;12.90;;;;;;;41.53;21.05;99232.28;5112527;28;20031;-75
2021/07/16 09:54:36;;;;;;;16.10;12.77;;;;;;;41.19;21.19;99223.00;5112678;28;20062;-75
2021/07/16 09:57:02;;;;;;;;;;;;;;;42.33;20.23;99220.16;5113189;28;20043;-77
2021/07/16 09:59:28;;;;;;;14.98;13.40;;;;;;;40.74;21.72;99227.91;5112485;28;20383;-77
2021/07/16 10:01:54;;;;;;;17.05;12.38;;;;;;;39.15;22.91;99219.88;5094210;28;20047;-75
2021/07/16 10:04:20;;;;;;;20.02;11.75;;;;;;;38.55;23.53;99224.00;5112721;28;20044;-76
2021/07/16 10:06:49;;;;;;;15.52;12.15;;;;;;;38.95;23.30;99224.84;5112281;28;20039;-73
2021/07/16 10:09:19;;;;;;;14.73;11.88;;;;;;;40.00;22.15;99215.94;5112490;28;20062;-71
2021/07/16 10:11:50;;;;;;;12.38;11.07;;;;;;;40.89;21.07;99217.41;5112455;28;20504;-73
2021/07/16 10:14:16;;;;;;;13.95;11.55;;;;;;;40.53;21.07;99210.34;5112254;28;20042;-75
2021/07/16 10:16:50;;;;;;;13.95;11.23;;;;;;;40.82;20.54;99204.03;5112282;28;20067;-75
2021/07/16 10:19:17;;;;;;;12.48;10.95;;;;;;;41.42;19.46;99201.31;5094094;28;20092;-77
2021/07/16 10:21:44;;;;;;;19.15;14.35;;;;;;;40.65;20.73;99206.88;5112178;28;20050;-76
2021/07/16 10:24:12;;;;;;;15.88;11.63;;;;;;;41.28;19.92;99206.28;5112541;28;20046;-79
2021/07/16 10:26:38;;;;;;;12.50;11.20;;;;;;;41.69;19.48;99201.94;5111953;28;20051;-77
2021/07/16 10:29:24;;;;;;;;;;;;;;;40.78;19.97;99205.03;5094732;28;20442;-79
2021/07/16 10:31:50;;;;;;;11.98;10.68;;;;;;;41.30;19.14;99198.41;5111856;28;19923;-75
2021/07/16 10:34:18;;;;;;;17.83;11.43;;;;;;;41.55;19.07;99186.34;5112606;28;20044;-77
2021/07/16 10:36:46;;;;;;;13.68;11.70;;;;;;;40.77;19.46;99192.34;5112350;28;20043;-76
2021/07/16 10:39:18;;;;;;;16.60;10.95;;;;;;;40.70;19.59;99188.13;5112117;28;20508;-77
2021/07/16 10:41:44;;;;;;;13.20;11.10;;;;;;;39.62;20.87;99192.47;5112075;28;20058;-73
2021/07/16 10:44:15;;;;;;;14.48;10.70;;;;;;;39.68;21.34;99184.03;5093859;28;20048;-71
2021/07/16 10:46:44;;;;;;;15.55;12.02;;;;;;;39.61;21.59;99176.19;5112229;28;20051;-77
2021/07/16 10:49:12;;;;;;;13.18;11.75;;;;;;;39.31;21.47;99181.53;5111955;28;20036;-74
2021/07/16 10:51:39;;;;;;;13.23;11.82;;;;;;;38.82;21.74;99174.06;5115561;28;20415;-73
2021/07/16 10:54:09;;;;;;;16.38;11.48;;;;;;;38.21;22.70;99176.47;5115982;28;20088;-74
2021/07/16 10:56:45;;;;;;;15.05;11.98;;;;;;;37.63;23.59;99172.63;5115815;28;20043;-74
2021/07/16 10:59:48;;;;;;;17.08;12.32;;;;;;;38.29;23.41;99177.69;5097503;28;20504;-77
2021/07/16 11:02:42;;;;;;;14.65;11.50;;;;;;;38.94;21.24;99164.34;5111154;28;20086;-71
2021/07/16 11:05:36;;;;;;;14.23;10.77;;;;;;;39.27;21.57;99161.19;5116075;28;20036;-75
2021/07/16 11:08:06;;;;;;;15.95;12.05;;;;;;;38.99;21.71;99161.41;5097355;28;20133;-74
2021/07/16 11:10:56;;;;;;;14.82;11.10;;;;;;;38.28;23.03;99153.91;5115591;28;20048;-72
2021/07/16 11:13:36;;;;;;;16.20;11.25;;;;;;;37.58;23.23;99167.22;5115342;28;20130;-74
2021/07/16 11:16:34;;;;;;;13.82;12.20;;;;;;;36.97;23.94;99159.13;5115311;28;20047;-75
2021/07/16 11:19:12;;;;;;;14.68;12.50;;;;;;;36.55;24.06;99161.84;5115738;28;20051;-74
2021/07/16 11:21:47;;;;;;;14.15;11.45;;;;;;;36.58;23.77;99151.03;5115057;28;20507;-74
2021/07/16 11:24:22;;;;;;;13.32;10.80;;;;;;;37.02;23.22;99148.00;5115459;28;20056;-76